sensor_id;sensor_type;location;lat;lon;timestamp;temperature;humidity
76040;SHT30;64736;50.462;4.850;2023-03-23T00:00:08;11.87;82.13
76040;SHT30;64736;50.462;4.850;2023-03-23T00:02:34;11.87;82.24
76040;SHT30;64736;50.462;4.850;2023-03-23T00:05:04;11.90;82.26
76040;SHT30;64736;50.462;4.850;2023-03-23T00:07:34;11.91;81.67
76040;SHT30;64736;50.462;4.850;2023-03-23T00:10:01;11.93;81.47
76040;SHT30;64736;50.462;4.850;2023-03-23T00:12:29;11.96;81.22
76040;SHT30;64736;50.462;4.850;2023-03-23T00:15:08;11.96;81.19
76040;SHT30;64736;50.462;4.850;2023-03-23T00:17:38;11.98;80.75
76040;SHT30;64736;50.462;4.850;2023-03-23T00:20:06;12.03;80.76
76040;SHT30;64736;50.462;4.850;2023-03-23T00:22:32;12.00;80.83
76040;SHT30;64736;50.462;4.850;2023-03-23T00:25:04;12.01;80.54
76040;SHT30;64736;50.462;4.850;2023-03-23T00:27:29;12.03;80.52
76040;SHT30;64736;50.462;4.850;2023-03-23T00:29:56;12.00;80.77
76040;SHT30;64736;50.462;4.850;2023-03-23T00:32:24;12.04;80.45
76040;SHT30;64736;50.462;4.850;2023-03-23T00:34:53;12.04;80.47
76040;SHT30;64736;50.462;4.850;2023-03-23T00:37:19;12.07;80.61
76040;SHT30;64736;50.462;4.850;2023-03-23T00:39:45;11.89;83.53
76040;SHT30;64736;50.462;4.850;2023-03-23T00:42:15;11.75;83.93
76040;SHT30;64736;50.462;4.850;2023-03-23T00:44:42;11.75;83.75
76040;SHT30;64736;50.462;4.850;2023-03-23T00:47:10;11.75;83.78
76040;SHT30;64736;50.462;4.850;2023-03-23T00:49:36;11.70;83.56
76040;SHT30;64736;50.462;4.850;2023-03-23T00:52:03;11.72;83.37
76040;SHT30;64736;50.462;4.850;2023-03-23T00:54:30;11.73;83.28
76040;SHT30;64736;50.462;4.850;2023-03-23T00:56:56;11.72;83.27
76040;SHT30;64736;50.462;4.850;2023-03-23T00:59:22;11.72;83.05
76040;SHT30;64736;50.462;4.850;2023-03-23T01:01:48;11.79;82.76
76040;SHT30;64736;50.462;4.850;2023-03-23T01:04:15;11.82;82.44
76040;SHT30;64736;50.462;4.850;2023-03-23T01:06:43;11.90;81.97
76040;SHT30;64736;50.462;4.850;2023-03-23T01:09:11;11.87;82.01
76040;SHT30;64736;50.462;4.850;2023-03-23T01:11:44;11.93;81.20
76040;SHT30;64736;50.462;4.850;2023-03-23T01:14:11;11.97;80.93
76040;SHT30;64736;50.462;4.850;2023-03-23T01:16:37;11.97;80.89
76040;SHT30;64736;50.462;4.850;2023-03-23T01:19:03;11.97;81.08
76040;SHT30;64736;50.462;4.850;2023-03-23T01:21:29;12.04;80.44
76040;SHT30;64736;50.462;4.850;2023-03-23T01:23:55;12.10;80.41
76040;SHT30;64736;50.462;4.850;2023-03-23T01:26:25;12.12;80.15
76040;SHT30;64736;50.462;4.850;2023-03-23T01:28:52;12.16;79.96
76040;SHT30;64736;50.462;4.850;2023-03-23T01:31:25;12.17;79.99
76040;SHT30;64736;50.462;4.850;2023-03-23T01:33:53;12.17;80.16
76040;SHT30;64736;50.462;4.850;2023-03-23T01:36:24;12.14;79.98
76040;SHT30;64736;50.462;4.850;2023-03-23T01:38:52;12.16;80.03
76040;SHT30;64736;50.462;4.850;2023-03-23T01:41:19;12.16;79.64
76040;SHT30;64736;50.462;4.850;2023-03-23T01:44:04;12.20;79.60
76040;SHT30;64736;50.462;4.850;2023-03-23T01:46:32;12.18;79.26
76040;SHT30;64736;50.462;4.850;2023-03-23T01:49:03;12.20;79.36
76040;SHT30;64736;50.462;4.850;2023-03-23T01:51:34;12.20;79.27
76040;SHT30;64736;50.462;4.850;2023-03-23T01:54:04;12.21;79.10
76040;SHT30;64736;50.462;4.850;2023-03-23T01:56:45;12.23;78.90
76040;SHT30;64736;50.462;4.850;2023-03-23T01:59:14;12.28;78.33
76040;SHT30;64736;50.462;4.850;2023-03-23T02:01:41;12.28;78.55
76040;SHT30;64736;50.462;4.850;2023-03-23T02:04:13;12.30;78.27
76040;SHT30;64736;50.462;4.850;2023-03-23T02:06:40;12.28;78.43
76040;SHT30;64736;50.462;4.850;2023-03-23T02:09:06;12.25;78.28
76040;SHT30;64736;50.462;4.850;2023-03-23T02:11:32;12.28;78.03
76040;SHT30;64736;50.462;4.850;2023-03-23T02:13:58;12.28;77.67
76040;SHT30;64736;50.462;4.850;2023-03-23T02:16:55;12.31;77.68
76040;SHT30;64736;50.462;4.850;2023-03-23T02:19:51;12.28;77.53
76040;SHT30;64736;50.462;4.850;2023-03-23T02:38:56;12.30;76.45
76040;SHT30;64736;50.462;4.850;2023-03-23T02:41:28;12.27;76.83
76040;SHT30;64736;50.462;4.850;2023-03-23T02:43:56;12.25;76.76
76040;SHT30;64736;50.462;4.850;2023-03-23T02:46:23;12.27;76.35
76040;SHT30;64736;50.462;4.850;2023-03-23T02:48:52;12.25;76.38
76040;SHT30;64736;50.462;4.850;2023-03-23T02:51:20;12.24;76.43
76040;SHT30;64736;50.462;4.850;2023-03-23T02:53:47;12.24;76.40
76040;SHT30;64736;50.462;4.850;2023-03-23T02:56:15;12.23;76.54
76040;SHT30;64736;50.462;4.850;2023-03-23T02:58:41;12.21;76.57
76040;SHT30;64736;50.462;4.850;2023-03-23T03:04:10;12.18;76.23
76040;SHT30;64736;50.462;4.850;2023-03-23T03:07:18;12.21;76.08
76040;SHT30;64736;50.462;4.850;2023-03-23T03:10:04;12.18;76.09
76040;SHT30;64736;50.462;4.850;2023-03-23T03:12:46;12.18;76.24
76040;SHT30;64736;50.462;4.850;2023-03-23T03:15:29;12.17;76.41
76040;SHT30;64736;50.462;4.850;2023-03-23T03:18:09;12.16;76.56
76040;SHT30;64736;50.462;4.850;2023-03-23T03:20:43;12.12;76.77
76040;SHT30;64736;50.462;4.850;2023-03-23T03:23:20;12.10;76.70
76040;SHT30;64736;50.462;4.850;2023-03-23T03:25:47;12.14;76.55
76040;SHT30;64736;50.462;4.850;2023-03-23T03:28:19;12.17;76.67
76040;SHT30;64736;50.462;4.850;2023-03-23T03:31:06;12.08;76.73
76040;SHT30;64736;50.462;4.850;2023-03-23T03:33:32;12.13;76.40
76040;SHT30;64736;50.462;4.850;2023-03-23T03:36:02;12.13;76.45
76040;SHT30;64736;50.462;4.850;2023-03-23T03:38:29;12.10;76.65
76040;SHT30;64736;50.462;4.850;2023-03-23T03:41:17;12.07;76.33
76040;SHT30;64736;50.462;4.850;2023-03-23T03:43:43;12.12;75.55
76040;SHT30;64736;50.462;4.850;2023-03-23T03:46:08;12.10;75.83
76040;SHT30;64736;50.462;4.850;2023-03-23T03:48:34;12.10;75.62
76040;SHT30;64736;50.462;4.850;2023-03-23T03:51:00;12.10;75.75
76040;SHT30;64736;50.462;4.850;2023-03-23T03:53:28;12.13;75.01
76040;SHT30;64736;50.462;4.850;2023-03-23T03:55:53;12.07;75.46
76040;SHT30;64736;50.462;4.850;2023-03-23T03:58:39;12.06;74.82
76040;SHT30;64736;50.462;4.850;2023-03-23T04:01:09;12.07;74.96
76040;SHT30;64736;50.462;4.850;2023-03-23T04:03:39;12.03;74.33
76040;SHT30;64736;50.462;4.850;2023-03-23T04:06:05;12.03;74.59
76040;SHT30;64736;50.462;4.850;2023-03-23T04:08:31;12.03;74.69
76040;SHT30;64736;50.462;4.850;2023-03-23T04:10:58;12.01;74.61
76040;SHT30;64736;50.462;4.850;2023-03-23T04:13:23;11.98;74.76
76040;SHT30;64736;50.462;4.850;2023-03-23T04:15:49;11.94;74.69
76040;SHT30;64736;50.462;4.850;2023-03-23T04:18:16;11.96;74.45
76040;SHT30;64736;50.462;4.850;2023-03-23T04:20:47;11.93;74.89
76040;SHT30;64736;50.462;4.850;2023-03-23T04:23:15;11.90;74.75
76040;SHT30;64736;50.462;4.850;2023-03-23T04:25:46;11.85;75.20
76040;SHT30;64736;50.462;4.850;2023-03-23T04:28:13;11.82;75.23
76040;SHT30;64736;50.462;4.850;2023-03-23T04:30:42;11.83;75.12
76040;SHT30;64736;50.462;4.850;2023-03-23T04:33:09;11.86;75.17
76040;SHT30;64736;50.462;4.850;2023-03-23T04:35:43;11.82;75.86
76040;SHT30;64736;50.462;4.850;2023-03-23T04:38:14;11.77;75.75
76040;SHT30;64736;50.462;4.850;2023-03-23T04:40:43;11.76;75.63
76040;SHT30;64736;50.462;4.850;2023-03-23T04:43:09;11.80;75.47
76040;SHT30;64736;50.462;4.850;2023-03-23T04:45:38;11.80;75.42
76040;SHT30;64736;50.462;4.850;2023-03-23T04:48:08;11.80;75.56
76040;SHT30;64736;50.462;4.850;2023-03-23T04:50:34;11.77;75.87
76040;SHT30;64736;50.462;4.850;2023-03-23T04:53:02;11.75;75.48
76040;SHT30;64736;50.462;4.850;2023-03-23T04:55:34;11.72;75.74
76040;SHT30;64736;50.462;4.850;2023-03-23T04:58:04;11.72;75.72
76040;SHT30;64736;50.462;4.850;2023-03-23T05:00:32;11.67;75.78
76040;SHT30;64736;50.462;4.850;2023-03-23T05:02:58;11.70;75.63
76040;SHT30;64736;50.462;4.850;2023-03-23T05:05:24;11.69;75.69
76040;SHT30;64736;50.462;4.850;2023-03-23T05:07:51;11.70;75.54
76040;SHT30;64736;50.462;4.850;2023-03-23T05:10:17;11.70;75.54
76040;SHT30;64736;50.462;4.850;2023-03-23T05:12:43;11.69;75.41
76040;SHT30;64736;50.462;4.850;2023-03-23T05:15:11;11.72;75.54
76040;SHT30;64736;50.462;4.850;2023-03-23T05:17:37;11.70;75.60
76040;SHT30;64736;50.462;4.850;2023-03-23T05:20:04;11.67;75.87
76040;SHT30;64736;50.462;4.850;2023-03-23T05:22:54;11.66;75.41
76040;SHT30;64736;50.462;4.850;2023-03-23T05:25:22;11.67;75.36
76040;SHT30;64736;50.462;4.850;2023-03-23T05:27:48;11.72;75.06
76040;SHT30;64736;50.462;4.850;2023-03-23T05:30:21;11.69;74.93
76040;SHT30;64736;50.462;4.850;2023-03-23T05:32:48;11.69;74.74
76040;SHT30;64736;50.462;4.850;2023-03-23T05:35:17;11.69;74.80
76040;SHT30;64736;50.462;4.850;2023-03-23T05:37:44;11.67;74.93
76040;SHT30;64736;50.462;4.850;2023-03-23T05:40:10;11.65;74.87
76040;SHT30;64736;50.462;4.850;2023-03-23T05:42:38;11.63;74.84
76040;SHT30;64736;50.462;4.850;2023-03-23T05:45:10;11.63;75.04
76040;SHT30;64736;50.462;4.850;2023-03-23T05:47:40;11.63;75.18
76040;SHT30;64736;50.462;4.850;2023-03-23T05:50:08;11.70;74.86
76040;SHT30;64736;50.462;4.850;2023-03-23T05:52:35;11.70;74.61
76040;SHT30;64736;50.462;4.850;2023-03-23T05:55:04;11.67;74.66
76040;SHT30;64736;50.462;4.850;2023-03-23T05:57:32;11.69;74.58
76040;SHT30;64736;50.462;4.850;2023-03-23T05:59:58;11.73;74.53
76040;SHT30;64736;50.462;4.850;2023-03-23T06:02:26;11.70;74.36
76040;SHT30;64736;50.462;4.850;2023-03-23T06:04:58;11.77;74.26
76040;SHT30;64736;50.462;4.850;2023-03-23T06:07:25;11.79;74.39
76040;SHT30;64736;50.462;4.850;2023-03-23T06:09:52;11.73;74.38
76040;SHT30;64736;50.462;4.850;2023-03-23T06:12:18;11.76;74.14
76040;SHT30;64736;50.462;4.850;2023-03-23T06:14:48;11.79;73.96
76040;SHT30;64736;50.462;4.850;2023-03-23T06:17:15;11.80;73.39
76040;SHT30;64736;50.462;4.850;2023-03-23T06:19:44;11.83;73.58
76040;SHT30;64736;50.462;4.850;2023-03-23T06:22:17;11.85;73.63
76040;SHT30;64736;50.462;4.850;2023-03-23T06:24:43;11.86;73.27
76040;SHT30;64736;50.462;4.850;2023-03-23T06:27:09;11.89;73.31
76040;SHT30;64736;50.462;4.850;2023-03-23T06:29:36;11.93;73.12
76040;SHT30;64736;50.462;4.850;2023-03-23T06:32:04;11.94;73.13
76040;SHT30;64736;50.462;4.850;2023-03-23T06:34:31;11.96;73.09
76040;SHT30;64736;50.462;4.850;2023-03-23T06:36:58;11.97;72.55
76040;SHT30;64736;50.462;4.850;2023-03-23T06:39:24;11.98;72.58
76040;SHT30;64736;50.462;4.850;2023-03-23T06:41:50;12.00;72.53
76040;SHT30;64736;50.462;4.850;2023-03-23T06:44:16;12.03;72.80
76040;SHT30;64736;50.462;4.850;2023-03-23T06:46:43;12.03;72.47
76040;SHT30;64736;50.462;4.850;2023-03-23T06:49:08;12.08;72.65
76040;SHT30;64736;50.462;4.850;2023-03-23T06:51:35;12.08;72.06
76040;SHT30;64736;50.462;4.850;2023-03-23T06:54:02;12.16;72.38
76040;SHT30;64736;50.462;4.850;2023-03-23T06:56:28;12.13;72.59
76040;SHT30;64736;50.462;4.850;2023-03-23T06:58:55;12.07;72.21
76040;SHT30;64736;50.462;4.850;2023-03-23T07:01:21;12.10;72.50
76040;SHT30;64736;50.462;4.850;2023-03-23T07:03:47;12.10;72.54
76040;SHT30;64736;50.462;4.850;2023-03-23T07:06:14;12.13;72.59
76040;SHT30;64736;50.462;4.850;2023-03-23T07:08:40;12.10;72.68
76040;SHT30;64736;50.462;4.850;2023-03-23T07:11:06;12.14;72.55
76040;SHT30;64736;50.462;4.850;2023-03-23T07:13:32;12.17;72.50
76040;SHT30;64736;50.462;4.850;2023-03-23T07:15:58;12.18;72.55
76040;SHT30;64736;50.462;4.850;2023-03-23T07:18:24;12.21;72.55
76040;SHT30;64736;50.462;4.850;2023-03-23T07:20:51;12.18;72.57
76040;SHT30;64736;50.462;4.850;2023-03-23T07:23:18;12.17;75.03
76040;SHT30;64736;50.462;4.850;2023-03-23T07:25:44;12.01;76.80
76040;SHT30;64736;50.462;4.850;2023-03-23T07:28:11;11.86;77.22
76040;SHT30;64736;50.462;4.850;2023-03-23T07:30:37;11.75;77.23
76040;SHT30;64736;50.462;4.850;2023-03-23T07:33:08;11.70;77.98
76040;SHT30;64736;50.462;4.850;2023-03-23T07:35:34;11.67;78.50
76040;SHT30;64736;50.462;4.850;2023-03-23T07:38:02;11.61;78.69
76040;SHT30;64736;50.462;4.850;2023-03-23T07:40:28;11.58;79.65
76040;SHT30;64736;50.462;4.850;2023-03-23T07:42:59;11.46;80.47
76040;SHT30;64736;50.462;4.850;2023-03-23T07:45:25;11.43;81.09
76040;SHT30;64736;50.462;4.850;2023-03-23T07:47:53;11.34;82.07
76040;SHT30;64736;50.462;4.850;2023-03-23T07:50:19;11.34;81.46
76040;SHT30;64736;50.462;4.850;2023-03-23T07:52:48;11.34;81.22
76040;SHT30;64736;50.462;4.850;2023-03-23T07:55:14;11.31;81.36
76040;SHT30;64736;50.462;4.850;2023-03-23T07:57:46;11.35;81.84
76040;SHT30;64736;50.462;4.850;2023-03-23T08:00:14;11.36;81.91
76040;SHT30;64736;50.462;4.850;2023-03-23T08:02:52;11.32;82.45
76040;SHT30;64736;50.462;4.850;2023-03-23T08:05:19;11.35;82.38
76040;SHT30;64736;50.462;4.850;2023-03-23T08:07:46;11.38;82.19
76040;SHT30;64736;50.462;4.850;2023-03-23T08:10:13;11.36;81.84
76040;SHT30;64736;50.462;4.850;2023-03-23T08:12:41;11.43;81.54
76040;SHT30;64736;50.462;4.850;2023-03-23T08:15:09;11.49;81.91
76040;SHT30;64736;50.462;4.850;2023-03-23T08:17:38;11.56;80.32
76040;SHT30;64736;50.462;4.850;2023-03-23T08:20:06;11.65;80.44
76040;SHT30;64736;50.462;4.850;2023-03-23T08:22:36;11.67;79.80
76040;SHT30;64736;50.462;4.850;2023-03-23T08:25:04;11.80;79.19
76040;SHT30;64736;50.462;4.850;2023-03-23T08:27:31;11.77;79.42
76040;SHT30;64736;50.462;4.850;2023-03-23T08:29:57;11.82;79.34
76040;SHT30;64736;50.462;4.850;2023-03-23T08:32:24;11.79;79.47
76040;SHT30;64736;50.462;4.850;2023-03-23T08:34:49;11.67;80.19
76040;SHT30;64736;50.462;4.850;2023-03-23T08:37:15;11.63;81.55
76040;SHT30;64736;50.462;4.850;2023-03-23T08:39:42;11.43;84.01
76040;SHT30;64736;50.462;4.850;2023-03-23T08:42:08;11.24;85.93
76040;SHT30;64736;50.462;4.850;2023-03-23T08:44:35;11.15;86.83
76040;SHT30;64736;50.462;4.850;2023-03-23T08:47:01;11.10;87.71
76040;SHT30;64736;50.462;4.850;2023-03-23T08:49:29;11.10;87.92
76040;SHT30;64736;50.462;4.850;2023-03-23T08:51:58;11.21;87.94
76040;SHT30;64736;50.462;4.850;2023-03-23T08:54:24;11.24;87.89
76040;SHT30;64736;50.462;4.850;2023-03-23T08:56:50;11.24;87.85
76040;SHT30;64736;50.462;4.850;2023-03-23T08:59:16;11.46;88.01
76040;SHT30;64736;50.462;4.850;2023-03-23T09:01:42;11.38;87.69
76040;SHT30;64736;50.462;4.850;2023-03-23T09:04:08;11.35;87.08
76040;SHT30;64736;50.462;4.850;2023-03-23T09:06:35;11.43;86.37
76040;SHT30;64736;50.462;4.850;2023-03-23T09:09:02;11.52;86.59
76040;SHT30;64736;50.462;4.850;2023-03-23T09:11:33;11.55;86.43
76040;SHT30;64736;50.462;4.850;2023-03-23T09:13:58;11.63;85.49
76040;SHT30;64736;50.462;4.850;2023-03-23T09:16:24;11.73;84.63
76040;SHT30;64736;50.462;4.850;2023-03-23T09:18:50;11.82;83.64
76040;SHT30;64736;50.462;4.850;2023-03-23T09:21:16;11.80;84.28
76040;SHT30;64736;50.462;4.850;2023-03-23T09:23:41;11.80;84.19
76040;SHT30;64736;50.462;4.850;2023-03-23T09:26:09;11.80;83.23
76040;SHT30;64736;50.462;4.850;2023-03-23T09:28:35;11.83;83.08
76040;SHT30;64736;50.462;4.850;2023-03-23T09:31:01;11.87;82.99
76040;SHT30;64736;50.462;4.850;2023-03-23T09:33:27;11.94;82.01
76040;SHT30;64736;50.462;4.850;2023-03-23T09:35:54;11.98;82.03
76040;SHT30;64736;50.462;4.850;2023-03-23T09:38:20;12.00;82.46
76040;SHT30;64736;50.462;4.850;2023-03-23T09:48:53;12.34;81.34
76040;SHT30;64736;50.462;4.850;2023-03-23T09:51:48;12.23;80.79
76040;SHT30;64736;50.462;4.850;2023-03-23T09:56:47;12.17;80.06
76040;SHT30;64736;50.462;4.850;2023-03-23T09:59:21;12.20;79.81
76040;SHT30;64736;50.462;4.850;2023-03-23T10:02:14;12.23;79.62
76040;SHT30;64736;50.462;4.850;2023-03-23T10:04:46;12.30;79.64
76040;SHT30;64736;50.462;4.850;2023-03-23T10:07:20;12.24;79.82
76040;SHT30;64736;50.462;4.850;2023-03-23T10:09:49;12.28;79.49
76040;SHT30;64736;50.462;4.850;2023-03-23T10:17:52;12.56;78.72
76040;SHT30;64736;50.462;4.850;2023-03-23T10:20:28;12.69;78.23
76040;SHT30;64736;50.462;4.850;2023-03-23T10:23:20;12.92;76.44
76040;SHT30;64736;50.462;4.850;2023-03-23T10:25:57;13.27;74.92
76040;SHT30;64736;50.462;4.850;2023-03-23T10:28:41;13.68;73.57
76040;SHT30;64736;50.462;4.850;2023-03-23T10:31:21;14.16;71.39
76040;SHT30;64736;50.462;4.850;2023-03-23T10:33:50;14.36;71.01
76040;SHT30;64736;50.462;4.850;2023-03-23T10:39:24;14.08;70.41
76040;SHT30;64736;50.462;4.850;2023-03-23T10:41:51;13.67;72.06
76040;SHT30;64736;50.462;4.850;2023-03-23T10:44:20;13.57;72.74
76040;SHT30;64736;50.462;4.850;2023-03-23T10:46:51;13.58;73.46
76040;SHT30;64736;50.462;4.850;2023-03-23T10:49:24;13.61;73.51
76040;SHT30;64736;50.462;4.850;2023-03-23T10:52:01;13.69;73.02
76040;SHT30;64736;50.462;4.850;2023-03-23T10:54:37;13.71;72.30
76040;SHT30;64736;50.462;4.850;2023-03-23T10:57:25;13.58;72.29
76040;SHT30;64736;50.462;4.850;2023-03-23T10:59:58;13.53;72.73
76040;SHT30;64736;50.462;4.850;2023-03-23T11:02:31;13.53;72.95
76040;SHT30;64736;50.462;4.850;2023-03-23T11:05:01;13.55;72.58
76040;SHT30;64736;50.462;4.850;2023-03-23T11:07:33;13.71;72.26
76040;SHT30;64736;50.462;4.850;2023-03-23T11:10:27;13.94;71.83
76040;SHT30;64736;50.462;4.850;2023-03-23T11:13:03;14.06;71.24
76040;SHT30;64736;50.462;4.850;2023-03-23T11:15:49;14.10;71.13
76040;SHT30;64736;50.462;4.850;2023-03-23T11:18:25;13.95;71.24
76040;SHT30;64736;50.462;4.850;2023-03-23T11:20:56;13.71;76.23
76040;SHT30;64736;50.462;4.850;2023-03-23T11:23:25;13.46;78.85
76040;SHT30;64736;50.462;4.850;2023-03-23T11:26:30;13.11;79.50
76040;SHT30;64736;50.462;4.850;2023-03-23T11:29:17;12.46;84.57
76040;SHT30;64736;50.462;4.850;2023-03-23T11:31:53;12.07;87.31
76040;SHT30;64736;50.462;4.850;2023-03-23T11:36:55;11.73;88.48
76040;SHT30;64736;50.462;4.850;2023-03-23T11:39:29;11.69;89.09
76040;SHT30;64736;50.462;4.850;2023-03-23T11:41:58;11.62;89.36
76040;SHT30;64736;50.462;4.850;2023-03-23T11:44:35;11.62;89.23
76040;SHT30;64736;50.462;4.850;2023-03-23T11:47:39;11.65;89.00
76040;SHT30;64736;50.462;4.850;2023-03-23T11:50:16;11.79;89.59
76040;SHT30;64736;50.462;4.850;2023-03-23T11:53:10;11.76;89.57
76040;SHT30;64736;50.462;4.850;2023-03-23T11:58:16;12.14;89.76
76040;SHT30;64736;50.462;4.850;2023-03-23T12:00:51;12.24;88.83
76040;SHT30;64736;50.462;4.850;2023-03-23T12:03:19;12.37;89.42
76040;SHT30;64736;50.462;4.850;2023-03-23T12:22:08;12.35;87.26
76040;SHT30;64736;50.462;4.850;2023-03-23T12:25:00;12.56;84.87
76040;SHT30;64736;50.462;4.850;2023-03-23T12:35:47;12.54;83.90
76040;SHT30;64736;50.462;4.850;2023-03-23T12:38:59;12.48;83.84
76040;SHT30;64736;50.462;4.850;2023-03-23T12:44:30;12.13;85.85
76040;SHT30;64736;50.462;4.850;2023-03-23T12:47:15;12.16;86.45
76040;SHT30;64736;50.462;4.850;2023-03-23T12:49:54;12.21;85.83
76040;SHT30;64736;50.462;4.850;2023-03-23T12:52:49;12.35;84.62
76040;SHT30;64736;50.462;4.850;2023-03-23T12:58:13;13.78;82.33
76040;SHT30;64736;50.462;4.850;2023-03-23T13:06:12;14.34;78.22
76040;SHT30;64736;50.462;4.850;2023-03-23T13:08:47;13.94;76.67
76040;SHT30;64736;50.462;4.850;2023-03-23T13:11:34;13.55;77.72
76040;SHT30;64736;50.462;4.850;2023-03-23T13:14:25;13.48;77.24
76040;SHT30;64736;50.462;4.850;2023-03-23T13:22:32;13.77;75.28
76040;SHT30;64736;50.462;4.850;2023-03-23T13:25:18;14.04;72.12
76040;SHT30;64736;50.462;4.850;2023-03-23T13:27:56;14.19;71.65
76040;SHT30;64736;50.462;4.850;2023-03-23T13:30:23;15.38;69.32
76040;SHT30;64736;50.462;4.850;2023-03-23T13:32:50;16.24;65.66
76040;SHT30;64736;50.462;4.850;2023-03-23T13:35:18;15.25;67.69
76040;SHT30;64736;50.462;4.850;2023-03-23T13:37:51;14.73;70.07
76040;SHT30;64736;50.462;4.850;2023-03-23T13:40:28;14.46;70.10
76040;SHT30;64736;50.462;4.850;2023-03-23T13:42:56;14.33;69.41
76040;SHT30;64736;50.462;4.850;2023-03-23T13:50:30;14.25;68.78
76040;SHT30;64736;50.462;4.850;2023-03-23T13:53:01;14.36;67.99
76040;SHT30;64736;50.462;4.850;2023-03-23T14:00:36;16.84;61.82
76040;SHT30;64736;50.462;4.850;2023-03-23T14:03:10;17.22;62.98
76040;SHT30;64736;50.462;4.850;2023-03-23T14:05:43;16.02;63.73
76040;SHT30;64736;50.462;4.850;2023-03-23T14:10:39;15.26;65.39
76040;SHT30;64736;50.462;4.850;2023-03-23T14:13:15;15.18;65.83
76040;SHT30;64736;50.462;4.850;2023-03-23T14:16:00;15.13;65.91
76040;SHT30;64736;50.462;4.850;2023-03-23T14:18:35;15.08;65.39
76040;SHT30;64736;50.462;4.850;2023-03-23T14:21:01;15.06;65.23
76040;SHT30;64736;50.462;4.850;2023-03-23T14:23:31;14.95;64.80
76040;SHT30;64736;50.462;4.850;2023-03-23T14:26:04;14.88;65.84
76040;SHT30;64736;50.462;4.850;2023-03-23T14:28:40;14.91;65.93
76040;SHT30;64736;50.462;4.850;2023-03-23T14:31:26;14.74;65.70
76040;SHT30;64736;50.462;4.850;2023-03-23T14:33:54;14.65;66.53
76040;SHT30;64736;50.462;4.850;2023-03-23T14:36:27;14.56;67.18
76040;SHT30;64736;50.462;4.850;2023-03-23T14:41:30;14.67;66.16
76040;SHT30;64736;50.462;4.850;2023-03-23T14:43:59;14.78;66.20
76040;SHT30;64736;50.462;4.850;2023-03-23T14:46:25;15.12;65.31
76040;SHT30;64736;50.462;4.850;2023-03-23T14:48:52;15.29;64.87
76040;SHT30;64736;50.462;4.850;2023-03-23T14:51:19;15.39;65.01
76040;SHT30;64736;50.462;4.850;2023-03-23T14:53:46;15.54;64.62
76040;SHT30;64736;50.462;4.850;2023-03-23T14:56:23;15.84;63.65
76040;SHT30;64736;50.462;4.850;2023-03-23T14:59:00;16.39;62.66
76040;SHT30;64736;50.462;4.850;2023-03-23T15:01:29;16.25;62.56
76040;SHT30;64736;50.462;4.850;2023-03-23T15:04:06;16.19;61.84
76040;SHT30;64736;50.462;4.850;2023-03-23T15:06:36;16.04;61.62
76040;SHT30;64736;50.462;4.850;2023-03-23T15:09:10;15.96;62.70
76040;SHT30;64736;50.462;4.850;2023-03-23T15:11:38;16.67;60.29
76040;SHT30;64736;50.462;4.850;2023-03-23T15:14:29;16.12;61.38
76040;SHT30;64736;50.462;4.850;2023-03-23T15:16:56;15.97;62.19
76040;SHT30;64736;50.462;4.850;2023-03-23T15:19:25;16.29;61.75
76040;SHT30;64736;50.462;4.850;2023-03-23T15:21:57;16.67;60.72
76040;SHT30;64736;50.462;4.850;2023-03-23T15:24:33;16.52;60.64
76040;SHT30;64736;50.462;4.850;2023-03-23T15:27:12;16.44;60.93
76040;SHT30;64736;50.462;4.850;2023-03-23T15:32:13;15.77;62.17
76040;SHT30;64736;50.462;4.850;2023-03-23T15:34:45;15.64;61.62
76040;SHT30;64736;50.462;4.850;2023-03-23T15:37:28;15.54;61.83
76040;SHT30;64736;50.462;4.850;2023-03-23T15:39:56;15.50;62.41
76040;SHT30;64736;50.462;4.850;2023-03-23T15:42:27;15.50;62.81
76040;SHT30;64736;50.462;4.850;2023-03-23T15:45:05;15.46;62.29
76040;SHT30;64736;50.462;4.850;2023-03-23T15:47:46;15.40;62.21
76040;SHT30;64736;50.462;4.850;2023-03-23T15:50:33;15.32;62.51
76040;SHT30;64736;50.462;4.850;2023-03-23T15:53:01;15.21;62.71
76040;SHT30;64736;50.462;4.850;2023-03-23T15:55:38;15.18;63.12
76040;SHT30;64736;50.462;4.850;2023-03-23T15:58:10;15.19;62.34
76040;SHT30;64736;50.462;4.850;2023-03-23T16:00:36;15.25;62.65
76040;SHT30;64736;50.462;4.850;2023-03-23T16:03:05;15.30;62.55
76040;SHT30;64736;50.462;4.850;2023-03-23T16:05:33;15.23;62.49
76040;SHT30;64736;50.462;4.850;2023-03-23T16:07:59;15.16;62.90
76040;SHT30;64736;50.462;4.850;2023-03-23T16:10:26;15.21;62.73
76040;SHT30;64736;50.462;4.850;2023-03-23T16:12:52;15.18;62.61
76040;SHT30;64736;50.462;4.850;2023-03-23T16:15:18;15.15;62.80
76040;SHT30;64736;50.462;4.850;2023-03-23T16:17:44;15.19;62.58
76040;SHT30;64736;50.462;4.850;2023-03-23T16:22:41;15.23;62.84
76040;SHT30;64736;50.462;4.850;2023-03-23T16:25:08;15.29;62.68
76040;SHT30;64736;50.462;4.850;2023-03-23T16:27:35;15.30;62.92
76040;SHT30;64736;50.462;4.850;2023-03-23T16:30:01;15.36;62.15
76040;SHT30;64736;50.462;4.850;2023-03-23T16:32:29;15.32;62.40
76040;SHT30;64736;50.462;4.850;2023-03-23T16:34:54;15.29;62.76
76040;SHT30;64736;50.462;4.850;2023-03-23T16:37:20;15.25;62.97
76040;SHT30;64736;50.462;4.850;2023-03-23T16:39:46;15.30;63.30
76040;SHT30;64736;50.462;4.850;2023-03-23T16:42:12;15.26;63.13
76040;SHT30;64736;50.462;4.850;2023-03-23T16:44:38;15.22;63.38
76040;SHT30;64736;50.462;4.850;2023-03-23T16:47:03;15.19;63.40
76040;SHT30;64736;50.462;4.850;2023-03-23T16:49:29;15.13;63.67
76040;SHT30;64736;50.462;4.850;2023-03-23T16:51:54;15.19;63.85
76040;SHT30;64736;50.462;4.850;2023-03-23T16:54:20;15.12;64.04
76040;SHT30;64736;50.462;4.850;2023-03-23T16:56:46;15.08;63.88
76040;SHT30;64736;50.462;4.850;2023-03-23T16:59:13;14.98;64.03
76040;SHT30;64736;50.462;4.850;2023-03-23T17:01:39;14.92;64.02
76040;SHT30;64736;50.462;4.850;2023-03-23T17:04:05;14.92;63.88
76040;SHT30;64736;50.462;4.850;2023-03-23T17:06:31;14.88;63.61
76040;SHT30;64736;50.462;4.850;2023-03-23T17:08:57;14.85;64.05
76040;SHT30;64736;50.462;4.850;2023-03-23T17:11:23;14.85;63.99
76040;SHT30;64736;50.462;4.850;2023-03-23T17:13:49;14.80;64.34
76040;SHT30;64736;50.462;4.850;2023-03-23T17:16:15;14.78;64.44
76040;SHT30;64736;50.462;4.850;2023-03-23T17:18:40;14.77;64.08
76040;SHT30;64736;50.462;4.850;2023-03-23T17:21:06;14.75;64.26
76040;SHT30;64736;50.462;4.850;2023-03-23T17:23:32;14.71;64.79
76040;SHT30;64736;50.462;4.850;2023-03-23T17:25:58;14.67;64.79
76040;SHT30;64736;50.462;4.850;2023-03-23T17:28:24;14.67;64.82
76040;SHT30;64736;50.462;4.850;2023-03-23T17:30:51;14.68;65.01
76040;SHT30;64736;50.462;4.850;2023-03-23T17:33:17;14.65;65.10
76040;SHT30;64736;50.462;4.850;2023-03-23T17:35:45;14.63;64.75